Terminal Aerodrome Forecast
Issued by NWS

Home | Current Version | Previous Version | Text Only | Print | Product List | Glossary Off
Versions: 1 2 3 4 5 6 7 8 9 10 11 12 13 14

000
FTUS43 KFGF 171900 AAA
TAFBJI
TAF AMD
KBJI 171919Z 1719/1818 28015G22KT P6SM SKC
     FM180000 31012KT P6SM SKC
     FM180200 VRB05KT P6SM SKC
     FM181500 12009KT P6SM BKN250=

USA.gov is the U.S. government's official web portal to all federal, state and local government web resources and services.